sensor_id;sensor_type;location;lat;lon;timestamp;pressure;altitude;pressure_sealevel;temperature;humidity
59419;BME280;45224;50.904;6.038;2022-08-21T00:01:21;100012.81;;;18.47;60.43
59419;BME280;45224;50.904;6.038;2022-08-21T00:02:59;100011.13;;;18.46;60.50
59419;BME280;45224;50.904;6.038;2022-08-21T00:04:31;100009.44;;;18.43;60.70
59419;BME280;45224;50.904;6.038;2022-08-21T00:06:02;100004.34;;;18.39;60.73
59419;BME280;45224;50.904;6.038;2022-08-21T00:07:32;100001.72;;;18.39;60.96
59419;BME280;45224;50.904;6.038;2022-08-21T00:09:05;99992.25;;;18.35;60.84
59419;BME280;45224;50.904;6.038;2022-08-21T00:10:36;99993.94;;;18.36;60.83
59419;BME280;45224;50.904;6.038;2022-08-21T00:12:07;99996.56;;;18.36;60.99
59419;BME280;45224;50.904;6.038;2022-08-21T00:13:38;99993.19;;;18.32;60.99
59419;BME280;45224;50.904;6.038;2022-08-21T00:15:10;99994.06;;;18.31;61.12
59419;BME280;45224;50.904;6.038;2022-08-21T00:16:42;99983.72;;;18.28;60.92
59419;BME280;45224;50.904;6.038;2022-08-21T00:18:12;99995.09;;;18.27;61.06
59419;BME280;45224;50.904;6.038;2022-08-21T00:19:43;99981.28;;;18.22;61.04
59419;BME280;45224;50.904;6.038;2022-08-21T00:21:14;99990.91;;;18.20;61.53
59419;BME280;45224;50.904;6.038;2022-08-21T00:22:45;99983.16;;;18.17;61.65
59419;BME280;45224;50.904;6.038;2022-08-21T00:24:16;99981.53;;;18.13;61.97
59419;BME280;45224;50.904;6.038;2022-08-21T00:25:47;99989.41;;;18.11;61.98
59419;BME280;45224;50.904;6.038;2022-08-21T00:27:17;99979.88;;;18.09;61.96
59419;BME280;45224;50.904;6.038;2022-08-21T00:28:48;99982.63;;;18.05;62.31
59419;BME280;45224;50.904;6.038;2022-08-21T00:30:20;99979.19;;;18.02;62.66
59419;BME280;45224;50.904;6.038;2022-08-21T00:31:52;99976.72;;;17.97;62.58
59419;BME280;45224;50.904;6.038;2022-08-21T00:33:23;99970.72;;;17.94;62.87
59419;BME280;45224;50.904;6.038;2022-08-21T00:34:54;99975.97;;;17.92;62.93
59419;BME280;45224;50.904;6.038;2022-08-21T00:36:24;99974.38;;;17.88;63.16
59419;BME280;45224;50.904;6.038;2022-08-21T00:37:55;99967.50;;;17.82;63.28
59419;BME280;45224;50.904;6.038;2022-08-21T00:39:25;99977.03;;;17.85;62.97
59419;BME280;45224;50.904;6.038;2022-08-21T00:41:00;99974.50;;;17.82;63.56
59419;BME280;45224;50.904;6.038;2022-08-21T00:42:31;99973.75;;;17.77;63.63
59419;BME280;45224;50.904;6.038;2022-08-21T00:44:02;99972.13;;;17.73;63.81
59419;BME280;45224;50.904;6.038;2022-08-21T00:45:32;99977.34;;;17.73;64.02
59419;BME280;45224;50.904;6.038;2022-08-21T00:47:04;99980.03;;;17.69;64.11
59419;BME280;45224;50.904;6.038;2022-08-21T00:48:34;99970.56;;;17.65;64.12
59419;BME280;45224;50.904;6.038;2022-08-21T00:50:08;99981.13;;;17.62;64.03
59419;BME280;45224;50.904;6.038;2022-08-21T00:51:43;99976.84;;;17.58;64.70
59419;BME280;45224;50.904;6.038;2022-08-21T00:53:16;99983.00;;;17.57;64.34
59419;BME280;45224;50.904;6.038;2022-08-21T00:54:48;99976.03;;;17.56;64.19
59419;BME280;45224;50.904;6.038;2022-08-21T00:56:19;99967.47;;;17.51;64.55
59419;BME280;45224;50.904;6.038;2022-08-21T00:57:53;99968.31;;;17.51;64.40
59419;BME280;45224;50.904;6.038;2022-08-21T00:59:25;99979.63;;;17.52;64.32
59419;BME280;45224;50.904;6.038;2022-08-21T01:00:57;99983.22;;;17.48;64.51
59419;BME280;45224;50.904;6.038;2022-08-21T01:02:29;99977.19;;;17.46;64.61
59419;BME280;45224;50.904;6.038;2022-08-21T01:04:00;99983.38;;;17.42;64.83
59419;BME280;45224;50.904;6.038;2022-08-21T01:05:32;99972.13;;;17.38;64.96
59419;BME280;45224;50.904;6.038;2022-08-21T01:07:03;99978.22;;;17.39;65.12
59419;BME280;45224;50.904;6.038;2022-08-21T01:08:34;99967.84;;;17.36;64.94
59419;BME280;45224;50.904;6.038;2022-08-21T01:10:05;99974.94;;;17.30;65.86
59419;BME280;45224;50.904;6.038;2022-08-21T01:11:36;99971.50;;;17.28;65.16
59419;BME280;45224;50.904;6.038;2022-08-21T01:13:08;99972.41;;;17.27;65.20
59419;BME280;45224;50.904;6.038;2022-08-21T01:14:41;99969.78;;;17.27;65.00
59419;BME280;45224;50.904;6.038;2022-08-21T01:16:16;99962.75;;;17.29;64.97
59419;BME280;45224;50.904;6.038;2022-08-21T01:17:49;99959.34;;;17.27;64.83
59419;BME280;45224;50.904;6.038;2022-08-21T01:19:21;99975.00;;;17.27;64.97
59419;BME280;45224;50.904;6.038;2022-08-21T01:21:21;99970.75;;;17.25;65.20
59419;BME280;45224;50.904;6.038;2022-08-21T01:22:52;99968.16;;;17.23;64.85
59419;BME280;45224;50.904;6.038;2022-08-21T01:24:23;99975.16;;;17.21;64.84
59419;BME280;45224;50.904;6.038;2022-08-21T01:25:53;99962.13;;;17.20;64.91
59419;BME280;45224;50.904;6.038;2022-08-21T01:27:24;99971.72;;;17.19;64.88
59419;BME280;45224;50.904;6.038;2022-08-21T01:29:14;99963.84;;;17.21;64.95
59419;BME280;45224;50.904;6.038;2022-08-21T01:30:46;99963.00;;;17.20;64.80
59419;BME280;45224;50.904;6.038;2022-08-21T01:32:18;99971.00;;;17.14;65.71
59419;BME280;45224;50.904;6.038;2022-08-21T01:33:49;99973.59;;;17.14;64.89
59419;BME280;45224;50.904;6.038;2022-08-21T01:35:20;99977.16;;;17.10;65.33
59419;BME280;45224;50.904;6.038;2022-08-21T01:36:51;99979.75;;;17.11;65.00
59419;BME280;45224;50.904;6.038;2022-08-21T01:38:22;99980.56;;;17.15;64.91
59419;BME280;45224;50.904;6.038;2022-08-21T01:39:52;99976.22;;;17.14;65.20
59419;BME280;45224;50.904;6.038;2022-08-21T01:41:23;99976.25;;;17.12;65.11
59419;BME280;45224;50.904;6.038;2022-08-21T01:42:54;99984.94;;;17.13;65.11
59419;BME280;45224;50.904;6.038;2022-08-21T01:44:25;99978.88;;;17.12;65.16
59419;BME280;45224;50.904;6.038;2022-08-21T01:45:55;99976.31;;;17.09;65.19
59419;BME280;45224;50.904;6.038;2022-08-21T01:47:26;99978.94;;;17.09;65.20
59419;BME280;45224;50.904;6.038;2022-08-21T01:48:57;99982.44;;;17.08;65.39
59419;BME280;45224;50.904;6.038;2022-08-21T01:50:27;99981.63;;;17.06;65.51
59419;BME280;45224;50.904;6.038;2022-08-21T01:51:58;99982.59;;;17.02;65.80
59419;BME280;45224;50.904;6.038;2022-08-21T01:53:28;99986.09;;;17.01;65.52
59419;BME280;45224;50.904;6.038;2022-08-21T01:54:59;99979.19;;;16.98;65.94
59419;BME280;45224;50.904;6.038;2022-08-21T01:56:36;99975.75;;;16.96;66.16
59419;BME280;45224;50.904;6.038;2022-08-21T01:58:07;99977.53;;;16.94;65.98
59419;BME280;45224;50.904;6.038;2022-08-21T01:59:37;99977.47;;;16.97;65.86
59419;BME280;45224;50.904;6.038;2022-08-21T02:01:08;99973.16;;;16.95;65.82
59419;BME280;45224;50.904;6.038;2022-08-21T02:02:39;99969.81;;;16.90;66.32
59419;BME280;45224;50.904;6.038;2022-08-21T02:04:11;99975.88;;;16.90;65.75
59419;BME280;45224;50.904;6.038;2022-08-21T02:05:41;99970.66;;;16.90;65.28
59419;BME280;45224;50.904;6.038;2022-08-21T02:07:12;99968.09;;;16.89;65.62
59419;BME280;45224;50.904;6.038;2022-08-21T02:08:43;99972.38;;;16.91;65.14
59419;BME280;45224;50.904;6.038;2022-08-21T02:10:17;99961.94;;;16.91;65.09
59419;BME280;45224;50.904;6.038;2022-08-21T02:11:47;99979.25;;;16.95;64.93
59419;BME280;45224;50.904;6.038;2022-08-21T02:13:18;99977.63;;;16.91;64.91
59419;BME280;45224;50.904;6.038;2022-08-21T02:14:49;99965.31;;;16.96;64.52
59419;BME280;45224;50.904;6.038;2022-08-21T02:16:19;99963.69;;;16.92;64.60
59419;BME280;45224;50.904;6.038;2022-08-21T02:17:58;99968.84;;;16.94;64.66
59419;BME280;45224;50.904;6.038;2022-08-21T02:19:29;99960.16;;;16.93;64.49
59419;BME280;45224;50.904;6.038;2022-08-21T02:21:00;99961.00;;;16.94;64.36
59419;BME280;45224;50.904;6.038;2022-08-21T02:22:31;99955.00;;;16.90;64.16
59419;BME280;45224;50.904;6.038;2022-08-21T02:24:02;99961.88;;;16.94;64.08
59419;BME280;45224;50.904;6.038;2022-08-21T02:25:33;99964.41;;;16.97;63.87
59419;BME280;45224;50.904;6.038;2022-08-21T02:27:04;99971.56;;;16.89;64.36
59419;BME280;45224;50.904;6.038;2022-08-21T02:28:36;99958.50;;;16.91;64.10
59419;BME280;45224;50.904;6.038;2022-08-21T02:30:09;99968.06;;;16.90;63.84
59419;BME280;45224;50.904;6.038;2022-08-21T02:31:40;99963.69;;;16.92;63.85
59419;BME280;45224;50.904;6.038;2022-08-21T02:33:11;99961.94;;;16.91;63.73
59419;BME280;45224;50.904;6.038;2022-08-21T02:34:42;99968.91;;;16.92;63.67
59419;BME280;45224;50.904;6.038;2022-08-21T02:36:13;99961.16;;;16.88;63.63
59419;BME280;45224;50.904;6.038;2022-08-21T02:38:02;99964.69;;;16.85;63.92
59419;BME280;45224;50.904;6.038;2022-08-21T02:39:33;99972.47;;;16.88;63.68
59419;BME280;45224;50.904;6.038;2022-08-21T02:41:06;99970.75;;;16.86;63.70
59419;BME280;45224;50.904;6.038;2022-08-21T02:42:37;99965.53;;;16.84;64.00
59419;BME280;45224;50.904;6.038;2022-08-21T02:44:09;99965.50;;;16.87;63.67
59419;BME280;45224;50.904;6.038;2022-08-21T02:45:39;99971.66;;;16.85;64.19
59419;BME280;45224;50.904;6.038;2022-08-21T02:47:10;99970.94;;;16.78;64.33
59419;BME280;45224;50.904;6.038;2022-08-21T02:48:41;99966.63;;;16.75;64.24
59419;BME280;45224;50.904;6.038;2022-08-21T02:50:11;99967.47;;;16.76;64.12
59419;BME280;45224;50.904;6.038;2022-08-21T02:51:42;99964.09;;;16.72;64.26
59419;BME280;45224;50.904;6.038;2022-08-21T02:53:14;99963.31;;;16.69;64.57
59419;BME280;45224;50.904;6.038;2022-08-21T02:54:46;99960.69;;;16.69;64.20
59419;BME280;45224;50.904;6.038;2022-08-21T02:56:19;99965.03;;;16.70;64.24
59419;BME280;45224;50.904;6.038;2022-08-21T02:57:49;99961.53;;;16.69;64.34
59419;BME280;45224;50.904;6.038;2022-08-21T02:59:20;99958.03;;;16.70;64.22
59419;BME280;45224;50.904;6.038;2022-08-21T03:00:51;99969.34;;;16.71;64.23
59419;BME280;45224;50.904;6.038;2022-08-21T03:02:21;99965.91;;;16.69;64.56
59419;BME280;45224;50.904;6.038;2022-08-21T03:03:52;99955.56;;;16.64;64.31
59419;BME280;45224;50.904;6.038;2022-08-21T03:05:25;99965.13;;;16.65;64.55
59419;BME280;45224;50.904;6.038;2022-08-21T03:06:56;99959.97;;;16.62;64.57
59419;BME280;45224;50.904;6.038;2022-08-21T03:08:26;99962.50;;;16.65;64.68
59419;BME280;45224;50.904;6.038;2022-08-21T03:09:57;99954.78;;;16.60;64.50
59419;BME280;45224;50.904;6.038;2022-08-21T03:11:27;99960.81;;;16.63;64.41
59419;BME280;45224;50.904;6.038;2022-08-21T03:12:58;99953.03;;;16.61;64.95
59419;BME280;45224;50.904;6.038;2022-08-21T03:14:29;99954.78;;;16.60;64.84
59419;BME280;45224;50.904;6.038;2022-08-21T03:15:59;99958.38;;;16.55;64.65
59419;BME280;45224;50.904;6.038;2022-08-21T03:17:30;99947.09;;;16.54;64.89
59419;BME280;45224;50.904;6.038;2022-08-21T03:19:00;99959.28;;;16.54;64.90
59419;BME280;45224;50.904;6.038;2022-08-21T03:20:32;99955.72;;;16.56;64.91
59419;BME280;45224;50.904;6.038;2022-08-21T03:22:03;99962.69;;;16.57;64.79
59419;BME280;45224;50.904;6.038;2022-08-21T03:23:34;99953.19;;;16.53;64.98
59419;BME280;45224;50.904;6.038;2022-08-21T03:25:05;99954.03;;;16.55;64.89
59419;BME280;45224;50.904;6.038;2022-08-21T03:26:36;99948.88;;;16.52;64.87
59419;BME280;45224;50.904;6.038;2022-08-21T03:28:12;99951.50;;;16.52;64.98
59419;BME280;45224;50.904;6.038;2022-08-21T03:29:43;99952.38;;;16.51;65.09
59419;BME280;45224;50.904;6.038;2022-08-21T03:31:13;99951.50;;;16.52;64.92
59419;BME280;45224;50.904;6.038;2022-08-21T03:32:44;99955.03;;;16.48;65.04
59419;BME280;45224;50.904;6.038;2022-08-21T03:34:14;99954.16;;;16.49;65.04
59419;BME280;45224;50.904;6.038;2022-08-21T03:35:59;99954.16;;;16.49;65.43
59419;BME280;45224;50.904;6.038;2022-08-21T03:37:30;99954.25;;;16.45;64.96
59419;BME280;45224;50.904;6.038;2022-08-21T03:39:01;99952.56;;;16.42;65.31
59419;BME280;45224;50.904;6.038;2022-08-21T03:40:31;99954.41;;;16.37;65.67
59419;BME280;45224;50.904;6.038;2022-08-21T03:42:02;99953.56;;;16.36;65.29
59419;BME280;45224;50.904;6.038;2022-08-21T03:43:33;99950.97;;;16.35;65.48
59419;BME280;45224;50.904;6.038;2022-08-21T03:45:04;99959.69;;;16.34;65.42
59419;BME280;45224;50.904;6.038;2022-08-21T03:46:35;99965.81;;;16.33;65.91
59419;BME280;45224;50.904;6.038;2022-08-21T03:48:07;99965.81;;;16.33;65.57
59419;BME280;45224;50.904;6.038;2022-08-21T03:49:37;99970.19;;;16.31;66.02
59419;BME280;45224;50.904;6.038;2022-08-21T03:51:08;99968.50;;;16.30;65.79
59419;BME280;45224;50.904;6.038;2022-08-21T03:52:38;99971.06;;;16.31;65.63
59419;BME280;45224;50.904;6.038;2022-08-21T03:54:09;99972.78;;;16.31;65.67
59419;BME280;45224;50.904;6.038;2022-08-21T03:55:39;99970.19;;;16.31;65.70
59419;BME280;45224;50.904;6.038;2022-08-21T03:57:10;99963.31;;;16.28;65.58
59419;BME280;45224;50.904;6.038;2022-08-21T03:58:41;99968.50;;;16.30;65.95
59419;BME280;45224;50.904;6.038;2022-08-21T04:00:13;99968.56;;;16.27;65.88
59419;BME280;45224;50.904;6.038;2022-08-21T04:01:54;99968.59;;;16.23;66.23
59419;BME280;45224;50.904;6.038;2022-08-21T04:03:27;99972.09;;;16.22;65.99
59419;BME280;45224;50.904;6.038;2022-08-21T04:04:57;99975.50;;;16.26;65.86
59419;BME280;45224;50.904;6.038;2022-08-21T04:06:27;99976.47;;;16.22;66.13
59419;BME280;45224;50.904;6.038;2022-08-21T04:08:00;99973.84;;;16.22;66.08
59419;BME280;45224;50.904;6.038;2022-08-21T04:09:31;99977.31;;;16.22;65.94
59419;BME280;45224;50.904;6.038;2022-08-21T04:11:02;99977.31;;;16.22;66.09
59419;BME280;45224;50.904;6.038;2022-08-21T04:12:32;99984.31;;;16.20;66.04
59419;BME280;45224;50.904;6.038;2022-08-21T04:14:03;99980.88;;;16.20;66.18
59419;BME280;45224;50.904;6.038;2022-08-21T04:15:34;99983.50;;;16.18;66.42
59419;BME280;45224;50.904;6.038;2022-08-21T04:17:05;99991.25;;;16.21;65.97
59419;BME280;45224;50.904;6.038;2022-08-21T04:18:35;99985.28;;;16.15;66.21
59419;BME280;45224;50.904;6.038;2022-08-21T04:20:06;99985.28;;;16.15;66.17
59419;BME280;45224;50.904;6.038;2022-08-21T04:21:37;99980.91;;;16.17;66.16
59419;BME280;45224;50.904;6.038;2022-08-21T04:23:07;99978.44;;;16.11;66.60
59419;BME280;45224;50.904;6.038;2022-08-21T04:24:38;99981.84;;;16.13;66.50
59419;BME280;45224;50.904;6.038;2022-08-21T04:26:09;99981.00;;;16.12;66.40
59419;BME280;45224;50.904;6.038;2022-08-21T04:27:39;99975.78;;;16.12;66.46
59419;BME280;45224;50.904;6.038;2022-08-21T04:29:13;99986.28;;;16.09;66.39
59419;BME280;45224;50.904;6.038;2022-08-21T04:30:44;99991.44;;;16.12;66.87
59419;BME280;45224;50.904;6.038;2022-08-21T04:32:22;99985.41;;;16.10;66.63
59419;BME280;45224;50.904;6.038;2022-08-21T04:33:52;99991.50;;;16.09;66.40
59419;BME280;45224;50.904;6.038;2022-08-21T04:35:25;99986.25;;;16.11;66.49
59419;BME280;45224;50.904;6.038;2022-08-21T04:36:56;99983.78;;;16.03;66.86
59419;BME280;45224;50.904;6.038;2022-08-21T04:38:26;99987.16;;;16.08;66.32
59419;BME280;45224;50.904;6.038;2022-08-21T04:39:57;99982.91;;;16.04;66.59
59419;BME280;45224;50.904;6.038;2022-08-21T04:41:28;99979.47;;;16.02;66.93
59419;BME280;45224;50.904;6.038;2022-08-21T04:43:05;99975.97;;;16.03;66.95
59419;BME280;45224;50.904;6.038;2022-08-21T04:44:35;99978.63;;;16.00;66.93
59419;BME280;45224;50.904;6.038;2022-08-21T04:46:06;99983.91;;;15.97;67.01
59419;BME280;45224;50.904;6.038;2022-08-21T04:47:36;99977.88;;;15.95;67.16
59419;BME280;45224;50.904;6.038;2022-08-21T04:49:07;99986.50;;;15.97;66.83
59419;BME280;45224;50.904;6.038;2022-08-21T04:50:42;99979.66;;;15.93;67.25
59419;BME280;45224;50.904;6.038;2022-08-21T04:52:15;99971.81;;;15.93;67.05
59419;BME280;45224;50.904;6.038;2022-08-21T04:54:02;99979.53;;;15.99;67.31
59419;BME280;45224;50.904;6.038;2022-08-21T04:55:36;99977.81;;;15.98;67.00
59419;BME280;45224;50.904;6.038;2022-08-21T04:57:07;99975.25;;;15.95;67.76
59419;BME280;45224;50.904;6.038;2022-08-21T04:58:40;99975.28;;;15.93;67.11
59419;BME280;45224;50.904;6.038;2022-08-21T05:00:12;99969.22;;;15.93;67.32
59419;BME280;45224;50.904;6.038;2022-08-21T05:01:44;99971.00;;;15.91;67.19
59419;BME280;45224;50.904;6.038;2022-08-21T05:03:16;99979.66;;;15.93;67.46
59419;BME280;45224;50.904;6.038;2022-08-21T05:04:52;99983.13;;;15.92;67.88
59419;BME280;45224;50.904;6.038;2022-08-21T05:06:24;99984.91;;;15.91;67.66
59419;BME280;45224;50.904;6.038;2022-08-21T05:07:59;99982.28;;;15.91;67.71
59419;BME280;45224;50.904;6.038;2022-08-21T05:09:31;99982.28;;;15.91;67.71
59419;BME280;45224;50.904;6.038;2022-08-21T05:11:02;99985.78;;;15.90;68.02
59419;BME280;45224;50.904;6.038;2022-08-21T05:12:34;99977.09;;;15.90;67.80
59419;BME280;45224;50.904;6.038;2022-08-21T05:14:05;99985.72;;;15.93;68.07
59419;BME280;45224;50.904;6.038;2022-08-21T05:15:35;99989.13;;;15.97;67.74
59419;BME280;45224;50.904;6.038;2022-08-21T05:17:08;99984.75;;;15.99;67.80
59419;BME280;45224;50.904;6.038;2022-08-21T05:18:39;99982.13;;;16.00;67.61
59419;BME280;45224;50.904;6.038;2022-08-21T05:20:11;99986.50;;;15.97;67.54
59419;BME280;45224;50.904;6.038;2022-08-21T05:21:44;99985.56;;;16.01;67.65
59419;BME280;45224;50.904;6.038;2022-08-21T05:23:15;99993.28;;;16.07;67.57
59419;BME280;45224;50.904;6.038;2022-08-21T05:24:45;99993.28;;;16.07;67.78
59419;BME280;45224;50.904;6.038;2022-08-21T05:26:16;99992.28;;;16.13;67.45
59419;BME280;45224;50.904;6.038;2022-08-21T05:27:46;99996.59;;;16.15;67.66
59419;BME280;45224;50.904;6.038;2022-08-21T05:29:17;99991.44;;;16.12;67.87
59419;BME280;45224;50.904;6.038;2022-08-21T05:30:47;99996.66;;;16.12;67.99
59419;BME280;45224;50.904;6.038;2022-08-21T05:32:17;99992.25;;;16.14;68.04
59419;BME280;45224;50.904;6.038;2022-08-21T05:33:48;99991.25;;;16.21;68.08
59419;BME280;45224;50.904;6.038;2022-08-21T05:35:19;99994.63;;;16.27;67.81
59419;BME280;45224;50.904;6.038;2022-08-21T05:36:49;99990.16;;;16.33;67.46
59419;BME280;45224;50.904;6.038;2022-08-21T05:38:20;99997.00;;;16.37;67.98
59419;BME280;45224;50.904;6.038;2022-08-21T05:39:50;99990.91;;;16.38;67.59
59419;BME280;45224;50.904;6.038;2022-08-21T05:41:21;99992.59;;;16.41;67.65
59419;BME280;45224;50.904;6.038;2022-08-21T05:42:53;99991.66;;;16.43;67.35
59419;BME280;45224;50.904;6.038;2022-08-21T05:44:24;99994.16;;;16.50;67.42
59419;BME280;45224;50.904;6.038;2022-08-21T05:45:54;99995.72;;;16.58;67.06
59419;BME280;45224;50.904;6.038;2022-08-21T05:47:25;99990.41;;;16.61;67.12
59419;BME280;45224;50.904;6.038;2022-08-21T05:48:55;99999.16;;;16.60;67.21
59419;BME280;45224;50.904;6.038;2022-08-21T05:50:26;99998.13;;;16.68;67.01
59419;BME280;45224;50.904;6.038;2022-08-21T05:51:56;100001.44;;;16.74;66.95
59419;BME280;45224;50.904;6.038;2022-08-21T05:53:26;99991.66;;;16.84;66.49
59419;BME280;45224;50.904;6.038;2022-08-21T05:54:57;99989.03;;;16.86;66.56
59419;BME280;45224;50.904;6.038;2022-08-21T05:56:28;99996.78;;;16.90;66.20
59419;BME280;45224;50.904;6.038;2022-08-21T05:57:58;99988.06;;;16.91;66.37
59419;BME280;45224;50.904;6.038;2022-08-21T05:59:29;99991.34;;;17.00;66.03
59419;BME280;45224;50.904;6.038;2022-08-21T06:01:01;99984.25;;;17.05;66.00
59419;BME280;45224;50.904;6.038;2022-08-21T06:02:32;99987.53;;;17.13;65.87
59419;BME280;45224;50.904;6.038;2022-08-21T06:04:03;99987.47;;;17.16;65.19
59419;BME280;45224;50.904;6.038;2022-08-21T06:05:33;99987.25;;;17.25;65.04
59419;BME280;45224;50.904;6.038;2022-08-21T06:07:04;99982.78;;;17.30;64.68
59419;BME280;45224;50.904;6.038;2022-08-21T06:08:35;99991.31;;;17.37;64.45
59419;BME280;45224;50.904;6.038;2022-08-21T06:10:06;99981.63;;;17.41;64.32
59419;BME280;45224;50.904;6.038;2022-08-21T06:11:37;99988.59;;;17.42;64.30
59419;BME280;45224;50.904;6.038;2022-08-21T06:13:07;99990.19;;;17.49;63.94
59419;BME280;45224;50.904;6.038;2022-08-21T06:14:39;99987.41;;;17.53;63.90
59419;BME280;45224;50.904;6.038;2022-08-21T06:16:12;99980.19;;;17.63;63.34
59419;BME280;45224;50.904;6.038;2022-08-21T06:17:43;99986.91;;;17.74;63.07
59419;BME280;45224;50.904;6.038;2022-08-21T06:19:14;99984.31;;;17.74;63.18
59419;BME280;45224;50.904;6.038;2022-08-21T06:20:44;99994.53;;;17.83;63.02
59419;BME280;45224;50.904;6.038;2022-08-21T06:22:15;99991.75;;;17.89;62.55
59419;BME280;45224;50.904;6.038;2022-08-21T06:23:45;99996.94;;;17.91;62.08
59419;BME280;45224;50.904;6.038;2022-08-21T06:25:16;99994.91;;;18.02;61.91
59419;BME280;45224;50.904;6.038;2022-08-21T06:26:46;99998.31;;;18.05;61.98
59419;BME280;45224;50.904;6.038;2022-08-21T06:28:18;100004.94;;;18.17;61.40
59419;BME280;45224;50.904;6.038;2022-08-21T06:29:48;99996.81;;;18.28;61.26
59419;BME280;45224;50.904;6.038;2022-08-21T06:31:22;100005.38;;;18.33;61.33
59419;BME280;45224;50.904;6.038;2022-08-21T06:32:53;100008.56;;;18.45;61.08
59419;BME280;45224;50.904;6.038;2022-08-21T06:34:24;100007.28;;;18.58;60.69
59419;BME280;45224;50.904;6.038;2022-08-21T06:35:54;99994.81;;;18.66;60.38
59419;BME280;45224;50.904;6.038;2022-08-21T06:37:25;100009.41;;;18.75;60.29
59419;BME280;45224;50.904;6.038;2022-08-21T06:38:55;100003.00;;;18.85;59.93
59419;BME280;45224;50.904;6.038;2022-08-21T06:40:27;100003.75;;;18.89;59.87
59419;BME280;45224;50.904;6.038;2022-08-21T06:41:58;100011.25;;;19.01;59.19
59419;BME280;45224;50.904;6.038;2022-08-21T06:43:32;100009.19;;;19.11;58.82
59419;BME280;45224;50.904;6.038;2022-08-21T06:45:03;100013.28;;;19.20;58.75
59419;BME280;45224;50.904;6.038;2022-08-21T06:46:34;100000.78;;;19.28;58.43
59419;BME280;45224;50.904;6.038;2022-08-21T06:48:05;100010.03;;;19.40;58.50
59419;BME280;45224;50.904;6.038;2022-08-21T06:49:37;100012.50;;;19.44;57.85
59419;BME280;45224;50.904;6.038;2022-08-21T06:51:07;100006.94;;;19.53;57.36
59419;BME280;45224;50.904;6.038;2022-08-21T06:52:38;100011.13;;;19.59;57.00
59419;BME280;45224;50.904;6.038;2022-08-21T06:54:09;100013.69;;;19.61;56.39
59419;BME280;45224;50.904;6.038;2022-08-21T06:55:40;100011.66;;;19.69;56.09
59419;BME280;45224;50.904;6.038;2022-08-21T06:57:11;100018.44;;;19.76;55.68
59419;BME280;45224;50.904;6.038;2022-08-21T06:58:41;100011.56;;;19.72;55.41
59419;BME280;45224;50.904;6.038;2022-08-21T07:00:12;100000.91;;;19.78;55.73
59419;BME280;45224;50.904;6.038;2022-08-21T07:01:43;100013.66;;;19.87;55.63
59419;BME280;45224;50.904;6.038;2022-08-21T07:03:24;100010.03;;;19.92;54.50
59419;BME280;45224;50.904;6.038;2022-08-21T07:04:56;100007.94;;;20.01;55.35
59419;BME280;45224;50.904;6.038;2022-08-21T07:06:26;100005.16;;;20.06;55.40
59419;BME280;45224;50.904;6.038;2022-08-21T07:07:57;100013.41;;;20.20;55.20
59419;BME280;45224;50.904;6.038;2022-08-21T07:09:27;100007.16;;;20.23;53.79
59419;BME280;45224;50.904;6.038;2022-08-21T07:11:00;100003.41;;;20.30;54.06
59419;BME280;45224;50.904;6.038;2022-08-21T07:12:31;100009.06;;;20.43;53.98
59419;BME280;45224;50.904;6.038;2022-08-21T07:14:02;100006.28;;;20.48;53.57
59419;BME280;45224;50.904;6.038;2022-08-21T07:15:33;100018.81;;;20.63;53.63
59419;BME280;45224;50.904;6.038;2022-08-21T07:17:03;100009.84;;;20.70;53.31
59419;BME280;45224;50.904;6.038;2022-08-21T07:18:34;100005.13;;;20.78;53.08
59419;BME280;45224;50.904;6.038;2022-08-21T07:20:05;100014.38;;;20.89;52.83
59419;BME280;45224;50.904;6.038;2022-08-21T07:21:36;100013.56;;;20.87;52.10
59419;BME280;45224;50.904;6.038;2022-08-21T07:23:12;100015.28;;;20.88;51.88
59419;BME280;45224;50.904;6.038;2022-08-21T07:24:45;100019.44;;;20.93;52.20
59419;BME280;45224;50.904;6.038;2022-08-21T07:26:18;100011.00;;;20.85;51.88
59419;BME280;45224;50.904;6.038;2022-08-21T07:27:50;100008.19;;;20.90;51.75
59419;BME280;45224;50.904;6.038;2022-08-21T07:29:21;100008.09;;;20.93;51.82
59419;BME280;45224;50.904;6.038;2022-08-21T07:30:54;100013.78;;;21.04;51.90
59419;BME280;45224;50.904;6.038;2022-08-21T07:32:26;100014.13;;;21.17;52.34
59419;BME280;45224;50.904;6.038;2022-08-21T07:33:56;100008.94;;;21.15;51.20
59419;BME280;45224;50.904;6.038;2022-08-21T07:35:27;100003.34;;;21.23;51.80
59419;BME280;45224;50.904;6.038;2022-08-21T07:36:58;100008.25;;;21.32;50.96
59419;BME280;45224;50.904;6.038;2022-08-21T07:38:28;100010.28;;;21.48;52.00
59419;BME280;45224;50.904;6.038;2022-08-21T07:39:59;100008.06;;;21.59;51.60
59419;BME280;45224;50.904;6.038;2022-08-21T07:41:30;100004.69;;;21.76;51.08
59419;BME280;45224;50.904;6.038;2022-08-21T07:43:02;100009.44;;;21.88;50.64
59419;BME280;45224;50.904;6.038;2022-08-21T07:44:32;100012.91;;;21.89;49.33
59419;BME280;45224;50.904;6.038;2022-08-21T07:46:04;100006.00;;;22.07;50.24
59419;BME280;45224;50.904;6.038;2022-08-21T07:47:35;100008.78;;;22.23;49.98
59419;BME280;45224;50.904;6.038;2022-08-21T07:49:05;100010.53;;;22.03;49.07
59419;BME280;45224;50.904;6.038;2022-08-21T07:50:36;100003.78;;;22.17;49.45
59419;BME280;45224;50.904;6.038;2022-08-21T07:52:06;100000.31;;;22.37;47.51
59419;BME280;45224;50.904;6.038;2022-08-21T07:53:37;100004.09;;;22.50;49.06
59419;BME280;45224;50.904;6.038;2022-08-21T07:55:12;99999.09;;;22.63;48.22
59419;BME280;45224;50.904;6.038;2022-08-21T07:56:43;100003.75;;;22.58;48.60
59419;BME280;45224;50.904;6.038;2022-08-21T07:58:13;99995.09;;;22.73;47.65
59419;BME280;45224;50.904;6.038;2022-08-21T07:59:44;99996.41;;;22.84;48.49
59419;BME280;45224;50.904;6.038;2022-08-21T08:01:14;99997.72;;;22.73;47.75
59419;BME280;45224;50.904;6.038;2022-08-21T08:02:47;99993.63;;;22.87;48.22
59419;BME280;45224;50.904;6.038;2022-08-21T08:04:20;99992.44;;;22.92;47.94